createdAt,value
2022-12-18T00:00:44.695Z,101.90
2022-12-18T00:05:13.731Z,50.80
2022-12-18T00:09:24.650Z,46.80
2022-12-18T00:13:33.125Z,51.30
2022-12-18T00:17:40.812Z,52.10
2022-12-18T00:21:49.047Z,48.40
2022-12-18T00:25:57.395Z,50.00
2022-12-18T00:30:08.053Z,46.40
2022-12-18T00:34:17.333Z,40.80
2022-12-18T00:38:25.336Z,43.30
2022-12-18T00:42:50.333Z,77.10
2022-12-18T00:46:59.132Z,98.30
2022-12-18T00:51:08.000Z,59.50
2022-12-18T00:55:16.746Z,53.90
2022-12-18T00:59:24.808Z,55.30
2022-12-18T01:03:33.496Z,50.30
2022-12-18T01:07:42.138Z,42.50
2022-12-18T01:11:49.924Z,43.00
2022-12-18T01:15:57.679Z,43.60
2022-12-18T01:20:06.103Z,31.80
2022-12-18T01:24:15.813Z,32.50
2022-12-18T01:28:23.864Z,74.70
2022-12-18T01:32:33.610Z,80.00
2022-12-18T01:36:42.121Z,51.10
2022-12-18T01:40:50.010Z,46.00
2022-12-18T01:45:04.870Z,43.00
2022-12-18T01:49:12.887Z,30.50
2022-12-18T01:53:23.813Z,29.40
2022-12-18T01:57:33.015Z,28.20
2022-12-18T02:01:41.703Z,26.10
2022-12-18T02:05:52.169Z,29.50
2022-12-18T02:10:05.122Z,57.60
2022-12-18T02:14:24.439Z,64.40
2022-12-18T02:18:35.420Z,37.80
2022-12-18T02:22:52.315Z,36.70
2022-12-18T02:27:03.336Z,27.70
2022-12-18T02:31:16.334Z,32.20
2022-12-18T02:35:26.690Z,34.20
2022-12-18T02:39:35.750Z,31.10
2022-12-18T02:43:43.333Z,27.00
2022-12-18T02:47:53.085Z,26.30
2022-12-18T02:52:07.418Z,29.00
2022-12-18T02:56:18.385Z,47.00
2022-12-18T03:00:29.927Z,45.80
2022-12-18T03:04:41.465Z,33.00
2022-12-18T03:08:52.424Z,25.20
2022-12-18T03:13:04.992Z,26.90
2022-12-18T03:17:17.383Z,27.10
2022-12-18T03:21:28.715Z,25.30
2022-12-18T03:25:41.047Z,28.60
2022-12-18T03:29:53.003Z,27.30
2022-12-18T03:34:05.028Z,22.80
2022-12-18T03:38:13.912Z,22.40
2022-12-18T03:42:28.538Z,38.80
2022-12-18T03:46:44.183Z,42.40
2022-12-18T03:50:55.475Z,33.50
2022-12-18T03:55:04.354Z,29.60
2022-12-18T03:59:13.802Z,31.60
2022-12-18T04:03:26.240Z,27.70
2022-12-18T04:07:35.181Z,30.00
2022-12-18T04:11:44.811Z,29.40
2022-12-18T04:15:52.807Z,24.50
2022-12-18T04:20:00.802Z,27.80
2022-12-18T04:24:09.699Z,23.40
2022-12-18T04:28:18.805Z,23.20
2022-12-18T04:32:27.752Z,46.70
2022-12-18T04:36:35.627Z,45.20
2022-12-18T04:40:44.450Z,31.80
2022-12-18T04:44:52.394Z,29.50
2022-12-18T04:49:00.958Z,35.40
2022-12-18T04:53:09.155Z,26.30
2022-12-18T04:57:19.149Z,29.40
2022-12-18T05:01:32.556Z,29.00
2022-12-18T05:05:42.715Z,28.90
2022-12-18T05:09:50.997Z,25.80
2022-12-18T05:13:59.263Z,27.70
2022-12-18T05:18:08.000Z,46.30
2022-12-18T05:22:15.809Z,62.30
2022-12-18T05:26:24.277Z,36.50
2022-12-18T05:30:32.443Z,38.70
2022-12-18T05:34:40.204Z,36.50
2022-12-18T05:38:48.197Z,45.40
2022-12-18T05:42:56.134Z,39.50
2022-12-18T05:47:03.943Z,39.20
2022-12-18T05:51:13.995Z,39.90
2022-12-18T05:55:22.456Z,34.60
2022-12-18T05:59:30.335Z,62.10
2022-12-18T06:03:38.338Z,66.20
2022-12-18T06:07:46.572Z,38.10
2022-12-18T06:11:55.347Z,39.10
2022-12-18T06:16:06.450Z,46.70
2022-12-18T06:20:15.141Z,39.10
2022-12-18T06:24:24.213Z,39.30
2022-12-18T06:28:31.949Z,40.20
2022-12-18T06:32:40.198Z,37.50
2022-12-18T06:36:48.232Z,30.30
2022-12-18T06:40:55.867Z,32.40
2022-12-18T06:45:04.388Z,46.40
2022-12-18T06:49:12.514Z,47.80
2022-12-18T06:53:21.543Z,37.90
2022-12-18T06:57:30.507Z,32.50
2022-12-18T07:01:38.712Z,31.40
2022-12-18T07:05:46.963Z,32.40
2022-12-18T07:09:55.270Z,31.40
2022-12-18T07:14:03.384Z,30.30
2022-12-18T07:18:11.693Z,29.50
2022-12-18T07:22:20.043Z,28.80
2022-12-18T07:26:28.471Z,27.30
2022-12-18T07:30:36.533Z,45.80
2022-12-18T07:34:44.347Z,50.10
2022-12-18T07:38:53.939Z,34.30
2022-12-18T07:43:01.447Z,35.50
2022-12-18T07:47:12.255Z,30.80
2022-12-18T07:51:21.029Z,30.30
2022-12-18T07:55:35.322Z,32.00
2022-12-18T07:59:51.137Z,22.80
2022-12-18T08:03:59.368Z,26.80
2022-12-18T08:08:07.185Z,32.50
2022-12-18T08:12:14.950Z,28.50
2022-12-18T08:16:23.505Z,30.90
2022-12-18T08:20:32.401Z,45.30
2022-12-18T08:24:40.712Z,48.20
2022-12-18T08:28:48.595Z,35.30
2022-12-18T08:32:57.476Z,35.20
2022-12-18T08:37:05.618Z,39.80
2022-12-18T08:41:15.460Z,33.70
2022-12-18T08:45:23.825Z,32.50
2022-12-18T08:49:32.187Z,34.80
2022-12-18T08:53:40.280Z,35.10
2022-12-18T08:57:52.350Z,35.70
2022-12-18T09:02:00.332Z,24.80
2022-12-18T09:06:09.992Z,29.50
2022-12-18T09:10:18.819Z,42.40
2022-12-18T09:14:30.154Z,53.60
2022-12-18T09:18:38.356Z,35.70
2022-12-18T09:22:46.757Z,38.70
2022-12-18T09:26:58.074Z,31.40
2022-12-18T09:31:10.502Z,35.40
2022-12-18T09:35:18.797Z,24.00
2022-12-18T09:39:26.386Z,36.00
2022-12-18T09:43:40.230Z,39.90
2022-12-18T09:47:50.066Z,45.00
2022-12-18T09:52:02.693Z,41.70
2022-12-18T09:56:19.532Z,41.90
2022-12-18T10:00:28.837Z,36.50
2022-12-18T10:04:37.433Z,33.00
2022-12-18T10:08:49.274Z,30.60
2022-12-18T10:13:04.750Z,30.40
2022-12-18T10:17:21.516Z,31.50
2022-12-18T10:21:34.857Z,35.60
2022-12-18T10:25:54.596Z,39.80
2022-12-18T10:30:03.550Z,43.20
2022-12-18T10:34:14.142Z,40.50
2022-12-18T10:38:30.396Z,32.00
2022-12-18T10:42:38.769Z,35.80
2022-12-18T10:46:46.550Z,44.00
2022-12-18T10:51:12.896Z,50.50
2022-12-18T10:55:23.470Z,50.60
2022-12-18T10:59:31.655Z,33.90
2022-12-18T11:03:41.113Z,37.60
2022-12-18T11:07:55.225Z,41.50
2022-12-18T11:12:04.417Z,32.70
2022-12-18T11:16:22.736Z,35.20
2022-12-18T11:20:35.399Z,38.30
2022-12-18T11:24:43.564Z,37.70
2022-12-18T11:28:55.759Z,48.10
2022-12-18T11:33:08.981Z,47.30
2022-12-18T11:37:20.312Z,43.80
2022-12-18T11:41:45.260Z,34.60
2022-12-18T11:46:02.221Z,30.80
2022-12-18T11:50:20.378Z,38.30
2022-12-18T11:54:28.143Z,38.70
2022-12-18T11:58:47.873Z,51.30
2022-12-18T12:03:18.513Z,51.70
2022-12-18T12:07:35.714Z,48.10
2022-12-18T12:11:51.252Z,40.10
2022-12-18T12:16:09.100Z,43.30
2022-12-18T12:20:24.070Z,37.40
2022-12-18T12:24:43.049Z,35.10
2022-12-18T12:29:05.469Z,35.40
2022-12-18T12:33:25.860Z,40.50
2022-12-18T12:37:43.611Z,43.00
2022-12-18T12:42:09.020Z,45.50
2022-12-18T12:46:19.253Z,34.70
2022-12-18T12:50:27.777Z,18.30
2022-12-18T12:54:37.637Z,35.60
2022-12-18T12:58:52.351Z,29.50
2022-12-18T13:03:07.739Z,31.40
2022-12-18T13:07:20.609Z,27.30
2022-12-18T13:12:00.439Z,45.30
2022-12-18T13:16:11.679Z,47.40
2022-12-18T13:20:22.136Z,40.40
2022-12-18T13:24:33.422Z,39.20
2022-12-18T13:29:05.578Z,34.90
2022-12-18T13:34:16.625Z,29.20
2022-12-18T13:38:25.968Z,35.50
2022-12-18T13:43:07.837Z,32.30
2022-12-18T13:47:30.929Z,38.00
2022-12-18T13:51:39.460Z,43.70
2022-12-18T13:55:49.443Z,54.00
2022-12-18T13:59:58.337Z,48.00
2022-12-18T14:04:32.569Z,47.90
2022-12-18T14:08:43.256Z,43.50
2022-12-18T14:13:05.941Z,47.50
2022-12-18T14:17:16.743Z,45.70
2022-12-18T14:21:31.240Z,54.50
2022-12-18T14:25:39.149Z,45.70
2022-12-18T14:29:48.822Z,49.00
2022-12-18T14:33:58.062Z,44.40
2022-12-18T14:38:30.041Z,43.80
2022-12-18T14:42:38.116Z,49.50
2022-12-18T14:46:47.213Z,39.50
2022-12-18T14:51:04.962Z,39.80
2022-12-18T14:55:20.600Z,39.10
2022-12-18T14:59:29.350Z,76.30
2022-12-18T15:03:37.451Z,68.10
2022-12-18T15:07:47.130Z,68.70
2022-12-18T15:11:59.771Z,63.70
2022-12-18T15:16:07.981Z,58.00
2022-12-18T15:20:17.347Z,53.10
2022-12-18T15:24:29.658Z,45.80
2022-12-18T15:28:40.530Z,55.30
2022-12-18T15:32:50.125Z,49.60
2022-12-18T15:36:58.023Z,50.50
2022-12-18T15:41:08.954Z,55.70
2022-12-18T15:45:21.484Z,51.00
2022-12-18T15:49:31.326Z,57.10
2022-12-18T15:53:40.652Z,48.60
2022-12-18T15:57:49.084Z,49.20
2022-12-18T16:01:57.285Z,55.60
2022-12-18T16:06:07.655Z,40.60
2022-12-18T16:10:15.555Z,36.60
2022-12-18T16:14:27.128Z,34.90
2022-12-18T16:18:35.103Z,44.50
2022-12-18T16:22:43.413Z,41.30
2022-12-18T16:26:53.713Z,54.20
2022-12-18T16:31:01.707Z,50.60
2022-12-18T16:35:12.448Z,37.70
2022-12-18T16:39:20.315Z,27.10
2022-12-18T16:43:27.942Z,22.00
2022-12-18T16:47:35.693Z,30.20
2022-12-18T16:51:46.430Z,46.50
2022-12-18T16:56:00.368Z,42.80
2022-12-18T17:00:10.051Z,43.30
2022-12-18T17:04:18.585Z,31.80
2022-12-18T17:08:26.150Z,44.10
2022-12-18T17:12:33.861Z,48.10
2022-12-18T17:16:46.922Z,51.50
2022-12-18T17:20:57.556Z,51.30
2022-12-18T17:25:05.596Z,49.60
2022-12-18T17:29:13.350Z,43.70
2022-12-18T17:33:21.253Z,41.50
2022-12-18T17:37:29.423Z,44.20
2022-12-18T17:41:37.484Z,46.40
2022-12-18T17:45:44.962Z,50.80
2022-12-18T17:49:53.083Z,37.60
2022-12-18T17:54:03.753Z,57.20
2022-12-18T17:58:11.889Z,57.10
2022-12-18T18:02:19.739Z,54.40
2022-12-18T18:06:28.038Z,52.50
2022-12-18T18:10:39.446Z,49.40
2022-12-18T18:14:47.537Z,45.90
2022-12-18T18:18:55.211Z,50.20
2022-12-18T18:23:04.146Z,59.30
2022-12-18T18:27:12.806Z,50.40
2022-12-18T18:31:20.617Z,52.90
2022-12-18T18:35:53.253Z,49.60
2022-12-18T18:39:58.467Z,53.20
2022-12-18T18:44:07.004Z,63.40
2022-12-18T18:48:15.451Z,55.60
2022-12-18T18:52:23.336Z,49.10
2022-12-18T19:01:01.499Z,58.60
2022-12-18T19:05:10.529Z,46.00
2022-12-18T19:09:19.523Z,58.20
2022-12-18T19:13:28.796Z,55.60
2022-12-18T19:17:37.533Z,64.90
2022-12-18T19:21:46.252Z,63.10
2022-12-18T19:26:10.317Z,52.30
2022-12-18T19:30:22.985Z,41.70
2022-12-18T19:34:30.993Z,57.50
2022-12-18T19:38:39.391Z,49.30
2022-12-18T19:42:54.406Z,44.10
2022-12-18T19:47:02.821Z,47.10
2022-12-18T19:51:12.712Z,55.90
2022-12-18T19:55:20.993Z,68.50
2022-12-18T19:59:28.747Z,37.30
2022-12-18T20:03:36.925Z,50.60
2022-12-18T20:07:44.757Z,65.40
2022-12-18T20:11:52.775Z,38.80
2022-12-18T20:16:00.978Z,33.50
2022-12-18T20:20:11.542Z,60.10
2022-12-18T20:24:21.853Z,48.70
2022-12-18T20:28:30.904Z,55.20
2022-12-18T20:32:39.049Z,51.20
2022-12-18T20:36:49.046Z,58.10
2022-12-18T20:40:57.560Z,58.50
2022-12-18T20:45:07.191Z,69.80
2022-12-18T20:49:15.610Z,67.80
2022-12-18T20:53:23.316Z,65.70
2022-12-18T20:57:31.498Z,40.50
2022-12-18T21:01:40.019Z,56.50
2022-12-18T21:05:55.547Z,63.50
2022-12-18T21:10:03.570Z,62.40
2022-12-18T21:14:13.965Z,57.60
2022-12-18T21:18:25.928Z,53.20
2022-12-18T21:22:39.413Z,56.80
2022-12-18T21:26:48.695Z,57.30
2022-12-18T21:30:56.661Z,41.60
2022-12-18T21:35:05.153Z,58.10
2022-12-18T21:39:13.231Z,57.50
2022-12-18T21:43:39.168Z,52.50
2022-12-18T21:47:48.306Z,52.90
2022-12-18T21:51:57.873Z,62.60
2022-12-18T21:56:06.715Z,49.90
2022-12-18T22:00:19.048Z,56.90
2022-12-18T22:04:27.543Z,26.80
2022-12-18T22:08:35.523Z,42.50
2022-12-18T22:12:48.995Z,57.70
2022-12-18T22:16:57.702Z,57.10
2022-12-18T22:21:07.890Z,59.00
2022-12-18T22:25:15.934Z,54.20
2022-12-18T22:29:43.316Z,61.00
2022-12-18T22:33:51.613Z,51.90
2022-12-18T22:38:01.228Z,31.60
2022-12-18T22:42:10.685Z,37.50
2022-12-18T22:46:20.226Z,46.60
2022-12-18T22:50:28.134Z,49.70
2022-12-18T22:54:35.791Z,57.20
2022-12-18T22:58:44.379Z,49.60
2022-12-18T23:02:59.320Z,55.90
2022-12-18T23:07:09.019Z,37.20
2022-12-18T23:11:21.355Z,28.70
2022-12-18T23:15:29.351Z,47.20
2022-12-18T23:19:37.359Z,46.00
2022-12-18T23:23:47.523Z,46.00
2022-12-18T23:27:56.357Z,49.50
2022-12-18T23:32:04.098Z,51.80
2022-12-18T23:36:12.667Z,53.00
2022-12-18T23:40:20.905Z,42.80
2022-12-18T23:44:29.693Z,50.50
2022-12-18T23:48:37.193Z,37.70
2022-12-18T23:52:45.163Z,50.80
2022-12-18T23:56:53.268Z,52.90
